Liberty Island — HPUY — position and weather

sailwx.info

Track history (hours):
 
Tides and Currents Weather Stations Pressure Air Temp Water Temp Dewpoint Dewpoint Depression Visibility Wind Speed Wind Dir Waves Ship Positions

Liberty Island

Last reported at 2016-Apr-20 13:29 UTC. Time now 2016-May-02 10:43 UTC.
Position N 47°13' W 131°30'.
Warning: this ship's position is 11 days out of date.

Length 178 m; draft 10.5 m.

Type: Cargo ship. MMSI: 355886000.

Date/timePositionNaut miles runAvg speedWind from/ knotsBaromVisibWave heightAir tempDewpointWater temp
2016-Apr-20 13:29N 47°13' W 131°30'2410.6
2016-Apr-20 11:14N 47°02' W 130°59'4111.1
2016-Apr-20 07:31N 46°40' W 130°07'10410.4
2016-Apr-19 21:33N 46°10' W 127°43'1111.1
2016-Apr-19 20:33N 46°11' W 127°27'2311.3
2016-Apr-19 18:33N 46°11' W 126°54'1111.4
2016-Apr-19 17:33N 46°11' W 126°38'1111.1
2016-Apr-19 16:33N 46°11' W 126°22'1111.3
2016-Apr-19 15:33N 46°11' W 126°06'1110.8
2016-Apr-19 14:33N 46°11' W 125°50'1110.7
2016-Apr-19 13:33N 46°11' W 125°34'1110.7
2016-Apr-19 12:33N 46°11' W 125°19'1110.8
2016-Apr-19 11:33N 46°11' W 125°03'1110.6
2016-Apr-19 10:33N 46°11' W 124°48'1110.7
2016-Apr-19 09:33N 46°12' W 124°33'1110.7
2016-Apr-19 08:33N 46°12' W 124°17'1010.2
2016-Apr-19 07:33N 46°16' W 124°04'10 9.5
2016-Apr-19 06:33N 46°12' W 123°51'9 9.2
2016-Apr-19 05:33N 46°16' W 123°39'10 9.8
2016-Apr-19 04:33N 46°13' W 123°25'9 9.0
2016-Apr-19 03:33N 46°10' W 123°13'1211.7
2016-Apr-19 02:33N 46°06' W 122°57'10 9.8
2016-Apr-19 01:33N 45°58' W 122°49'1212.4
2016-Apr-19 00:33N 45°46' W 122°46'7 7.1
2016-Apr-18 23:32N 45°39' W 122°46'0 0.0
2016-Apr-18 22:29N 45°39' W 122°46'0 0.0
2016-Apr-18 21:26N 45°39' W 122°46'0 0.0
2016-Apr-18 20:32N 45°39' W 122°46'0 0.0
2016-Apr-18 19:32N 45°39' W 122°46'0 0.0
2016-Apr-18 18:29N 45°39' W 122°46'0 0.0
2016-Apr-18 17:29N 45°39' W 122°46'0 0.0
2016-Apr-18 16:32N 45°39' W 122°46'0 0.0
2016-Apr-18 15:29N 45°39' W 122°46'0 0.0
2016-Apr-18 14:29N 45°39' W 122°46'0 0.0
2016-Apr-18 13:23N 45°39' W 122°46'0 0.0
2016-Apr-18 12:23N 45°39' W 122°46'0 0.0
2016-Apr-18 11:29N 45°39' W 122°46'0 0.0
2016-Apr-18 10:20N 45°39' W 122°46'0 0.0
2016-Apr-18 09:29N 45°39' W 122°46'0 0.0
2016-Apr-18 08:32N 45°39' W 122°46'0 0.0
2016-Apr-18 07:32N 45°39' W 122°46'0 0.0
2016-Apr-18 06:32N 45°39' W 122°46'0 0.0
2016-Apr-18 05:23N 45°39' W 122°46'0 0.0
2016-Apr-18 04:32N 45°39' W 122°46'0 0.0
2016-Apr-18 03:26N 45°39' W 122°46'0 0.0
2016-Apr-18 02:32N 45°39' W 122°46'0 0.0
2016-Apr-18 01:29N 45°39' W 122°46'0 0.0
2016-Apr-18 00:29N 45°39' W 122°46'0 0.0
2016-Apr-17 23:32N 45°39' W 122°46'0 0.0
2016-Apr-17 22:32N 45°39' W 122°46'0 0.0
2016-Apr-17 21:32N 45°39' W 122°46'0 0.0
2016-Apr-17 20:29N 45°39' W 122°46'0 0.0
2016-Apr-17 19:20N 45°39' W 122°46'0 0.0
2016-Apr-17 18:32N 45°39' W 122°46'0 0.0
2016-Apr-17 17:32N 45°39' W 122°46'0 0.0
2016-Apr-17 16:29N 45°39' W 122°46'0 0.0
2016-Apr-17 15:23N 45°39' W 122°46'0 0.0
2016-Apr-17 14:29N 45°39' W 122°46'0 0.0
2016-Apr-17 13:32N 45°39' W 122°46'0 0.0
2016-Apr-17 12:32N 45°39' W 122°46'0 0.0
2016-Apr-17 11:32N 45°39' W 122°46'0 0.0
2016-Apr-17 10:26N 45°39' W 122°46'0 0.0
2016-Apr-17 09:32N 45°39' W 122°46'0 0.0
2016-Apr-17 08:32N 45°39' W 122°46'0 0.0
2016-Apr-17 07:29N 45°39' W 122°46'0 0.0
2016-Apr-17 06:29N 45°39' W 122°46'0 0.0
2016-Apr-17 05:29N 45°39' W 122°46'0 0.0
2016-Apr-17 04:32N 45°39' W 122°46'0 0.0
2016-Apr-17 03:23N 45°39' W 122°46'0 0.0
2016-Apr-17 02:29N 45°39' W 122°46'0 0.0
2016-Apr-17 01:32N 45°39' W 122°46'0 0.0
2016-Apr-17 00:29N 45°39' W 122°46'0 0.0
2016-Apr-16 23:32N 45°39' W 122°46'0 0.0
2016-Apr-16 22:29N 45°39' W 122°46'0 0.0
2016-Apr-16 21:32N 45°39' W 122°46'0 0.0
2016-Apr-16 20:32N 45°39' W 122°46'0 0.0
2016-Apr-16 19:32N 45°39' W 122°46'0 0.0
2016-Apr-16 18:29N 45°39' W 122°46'0 0.0
2016-Apr-16 17:32N 45°39' W 122°46'0 0.0
2016-Apr-16 16:32N 45°39' W 122°46'0 0.0
2016-Apr-16 15:29N 45°39' W 122°46'0 0.0
2016-Apr-16 14:29N 45°39' W 122°46'0 0.0
2016-Apr-16 13:29N 45°39' W 122°46'0 0.0
2016-Apr-16 12:32N 45°39' W 122°46'0 0.0
2016-Apr-16 11:32N 45°39' W 122°46'0 0.0
2016-Apr-16 10:32N 45°39' W 122°46'0 0.0
2016-Apr-16 09:32N 45°39' W 122°46'0 0.0
2016-Apr-16 08:29N 45°39' W 122°46'0 0.0
2016-Apr-16 07:32N 45°39' W 122°46'0 0.0
2016-Apr-16 06:32N 45°39' W 122°46'0 0.0
2016-Apr-16 05:26N 45°39' W 122°46'0 0.0
2016-Apr-16 04:32N 45°39' W 122°46'0 0.0
2016-Apr-16 03:29N 45°39' W 122°46'0 0.0
2016-Apr-16 02:32N 45°39' W 122°46'0 0.0
2016-Apr-16 01:29N 45°39' W 122°46'0 0.0
2016-Apr-16 00:29N 45°39' W 122°46'0 0.0
2016-Apr-15 23:29N 45°39' W 122°46'0 0.0
2016-Apr-15 22:32N 45°39' W 122°46'0 0.0
2016-Apr-15 21:29N 45°39' W 122°46'0 0.0
2016-Apr-15 20:32N 45°39' W 122°46'0 0.0
2016-Apr-15 19:29N 45°39' W 122°46'0 0.0
2016-Apr-15 18:29N 45°39' W 122°46'0 0.0
2016-Apr-15 17:32N 45°39' W 122°46'0 0.0
2016-Apr-15 16:23N 45°39' W 122°46'0 0.0
2016-Apr-15 15:29N 45°39' W 122°46'0 0.0
2016-Apr-15 14:32N 45°39' W 122°46'2 1.9
2016-Apr-15 13:25N 45°41' W 122°46'0 0.0
2016-Apr-15 12:28N 45°41' W 122°46'0 0.0
2016-Apr-15 11:28N 45°41' W 122°46'0 0.0
2016-Apr-15 10:28N 45°41' W 122°46'0 0.0
2016-Apr-15 09:31N 45°41' W 122°46'0 0.0
2016-Apr-15 08:28N 45°41' W 122°46'0 0.0
2016-Apr-15 07:31N 45°41' W 122°46'0 0.0
2016-Apr-15 06:31N 45°41' W 122°46'0 0.0
2016-Apr-15 05:31N 45°41' W 122°46'0 0.0
2016-Apr-15 04:31N 45°41' W 122°46'0 0.0
2016-Apr-15 03:28N 45°41' W 122°46'0 0.0
2016-Apr-15 02:31N 45°41' W 122°46'0 0.0
2016-Apr-15 01:31N 45°41' W 122°46'0 0.0
2016-Apr-15 00:31N 45°41' W 122°46'0 0.0
2016-Apr-14 23:25N 45°41' W 122°46'0 0.0
2016-Apr-14 22:31N 45°41' W 122°46'0 0.0
2016-Apr-14 21:28N 45°41' W 122°46'0 0.0
2016-Apr-14 20:28N 45°41' W 122°46'0 0.0
2016-Apr-14 19:31N 45°41' W 122°46'0 0.0
2016-Apr-14 18:25N 45°41' W 122°46'0 0.0
2016-Apr-14 17:31N 45°41' W 122°46'0 0.0
2016-Apr-14 16:28N 45°41' W 122°46'0 0.0
2016-Apr-14 15:28N 45°41' W 122°46'0 0.0
2016-Apr-14 14:25N 45°41' W 122°46'0 0.0
2016-Apr-14 13:31N 45°41' W 122°46'0 0.0
2016-Apr-14 12:31N 45°41' W 122°46'0 0.0
2016-Apr-14 11:28N 45°41' W 122°46'0 0.0
2016-Apr-14 10:28N 45°41' W 122°46'0 0.0
2016-Apr-14 09:22N 45°41' W 122°46'0 0.0
2016-Apr-14 08:31N 45°41' W 122°46'0 0.0
2016-Apr-14 07:31N 45°41' W 122°46'0 0.0
2016-Apr-14 06:31N 45°41' W 122°46'0 0.0
2016-Apr-14 05:31N 45°41' W 122°46'0 0.0
2016-Apr-14 04:25N 45°41' W 122°46'0 0.0
2016-Apr-14 03:31N 45°41' W 122°46'0 0.0
2016-Apr-14 02:28N 45°41' W 122°46'0 0.0
2016-Apr-14 01:31N 45°41' W 122°46'0 0.0
2016-Apr-14 00:31N 45°41' W 122°46'0 0.0
2016-Apr-13 23:31N 45°41' W 122°46'0 0.0
2016-Apr-13 22:22N 45°41' W 122°46'0 0.0
2016-Apr-13 21:33N 45°41' W 122°46'0 0.0
2016-Apr-13 20:33N 45°41' W 122°46'0 0.0
2016-Apr-13 19:33N 45°41' W 122°46'6 6.4
2016-Apr-13 18:33N 45°47' W 122°46'1110.7
2016-Apr-13 17:33N 45°58' W 122°49'10 9.9
2016-Apr-13 16:33N 46°06' W 122°57'1111.1
2016-Apr-13 15:33N 46°11' W 123°11'1010.3
2016-Apr-13 14:33N 46°11' W 123°26'10 9.7
2016-Apr-13 13:33N 46°16' W 123°38'9 8.4
2016-Apr-13 12:32N 46°12' W 123°50'0 0.0
2016-Apr-13 11:32N 46°12' W 123°50'0 0.1
2016-Apr-13 10:32N 46°12' W 123°50'0 0.0
2016-Apr-13 09:32N 46°12' W 123°50'0 0.1
2016-Apr-13 08:32N 46°12' W 123°50'0 0.0
2016-Apr-13 07:26N 46°12' W 123°50'0 0.0
2016-Apr-13 06:32N 46°12' W 123°50'0 0.0
2016-Apr-13 05:32N 46°12' W 123°50'0 0.0
2016-Apr-13 04:32N 46°12' W 123°50'0 0.0
2016-Apr-13 03:32N 46°12' W 123°50'0 0.1
2016-Apr-13 02:32N 46°12' W 123°50'0 0.1
2016-Apr-13 01:32N 46°12' W 123°50'0 0.1
2016-Apr-13 00:32N 46°12' W 123°50'0 0.0
2016-Apr-12 23:32N 46°12' W 123°50'0 0.0
2016-Apr-12 22:32N 46°12' W 123°50'0 0.0
2016-Apr-12 21:32N 46°12' W 123°50'0 0.2
2016-Apr-12 20:32N 46°12' W 123°50'0 0.1
2016-Apr-12 19:32N 46°12' W 123°50'0 0.0
2016-Apr-12 18:32N 46°12' W 123°50'0 0.0
2016-Apr-12 17:32N 46°12' W 123°50'0 0.0
2016-Apr-12 16:32N 46°12' W 123°50'0 0.0
2016-Apr-12 15:32N 46°12' W 123°50'0 0.1
2016-Apr-12 14:32N 46°12' W 123°50'0 0.1
2016-Apr-12 13:32N 46°12' W 123°50'0 0.2
2016-Apr-12 12:32N 46°12' W 123°50'0 0.0
2016-Apr-12 11:32N 46°12' W 123°50'0 0.0
2016-Apr-12 10:32N 46°12' W 123°50'0 0.0
2016-Apr-12 09:32N 46°12' W 123°50'0 0.1
2016-Apr-12 08:32N 46°12' W 123°50'0 0.2
2016-Apr-12 07:33N 46°12' W 123°50'0 0.0
2016-Apr-12 06:33N 46°12' W 123°50'0 0.0
2016-Apr-12 05:32N 46°12' W 123°50'0 0.0
2016-Apr-12 04:32N 46°12' W 123°50'0 0.0
2016-Apr-12 03:32N 46°12' W 123°50'0 0.0
2016-Apr-12 02:32N 46°12' W 123°50'0 0.2
2016-Apr-12 01:32N 46°12' W 123°50'0 0.1
2016-Apr-12 00:32N 46°12' W 123°50'0 0.0
2016-Apr-11 23:32N 46°12' W 123°50'0 0.0
2016-Apr-11 22:29N 46°12' W 123°50'0 0.0
2016-Apr-11 21:32N 46°12' W 123°50'0 0.2
2016-Apr-11 20:32N 46°12' W 123°50'0 0.0
2016-Apr-11 19:26N 46°12' W 123°50'0 0.0
2016-Apr-11 18:32N 46°12' W 123°50'0 0.0
2016-Apr-11 17:32N 46°12' W 123°50'0 0.0
2016-Apr-11 16:32N 46°12' W 123°50'0 0.0
2016-Apr-11 15:32N 46°12' W 123°50'0 0.0
2016-Apr-11 14:32N 46°12' W 123°50'0 0.4
2016-Apr-11 13:33N 46°12' W 123°50'7 6.8
2016-Apr-11 12:33N 46°14' W 123°60'1110.7
2016-Apr-11 11:33N 46°11' W 124°14'1111.4
2016-Apr-11 10:33N 46°12' W 124°31'1212.4
2016-Apr-11 09:33N 46°12' W 124°49'1312.6
2016-Apr-11 08:33N 46°11' W 125°07'1212.3
2016-Apr-11 07:33N 46°11' W 125°25'1312.4
2016-Apr-11 06:31N 46°11' W 125°43'1312.4
2016-Apr-11 05:28N 46°11' W 126°02'1111.4
2016-Apr-11 04:32N 46°11' W 126°17'1110.8
2016-Apr-11 03:33N 46°10' W 126°33'1010.1
2016-Apr-11 02:33N 46°11' W 126°47'  
Track history (hours):
 
Tides and Currents Weather Stations Pressure Air Temp Water Temp Dewpoint Dewpoint Depression Visibility Wind Speed Wind Dir Waves Ship Positions

Liberty Island

Last reported at 2016-Apr-20 13:29 UTC. Time now 2016-May-02 10:43 UTC.
Position N 47°13' W 131°30'.
Warning: this ship's position is 11 days out of date.

Length 178 m; draft 10.5 m.

Type: Cargo ship. MMSI: 355886000.

Date/timePositionNaut miles runAvg speedWind from/ knotsBaromVisibWave heightAir tempDewpointWater temp
2016-Apr-20 13:29N 47°13' W 131°30'2410.6
2016-Apr-20 11:14N 47°02' W 130°59'4111.1
2016-Apr-20 07:31N 46°40' W 130°07'10410.4
2016-Apr-19 21:33N 46°10' W 127°43'1111.1
2016-Apr-19 20:33N 46°11' W 127°27'2311.3
2016-Apr-19 18:33N 46°11' W 126°54'1111.4
2016-Apr-19 17:33N 46°11' W 126°38'1111.1
2016-Apr-19 16:33N 46°11' W 126°22'1111.3
2016-Apr-19 15:33N 46°11' W 126°06'1110.8
2016-Apr-19 14:33N 46°11' W 125°50'1110.7
2016-Apr-19 13:33N 46°11' W 125°34'1110.7
2016-Apr-19 12:33N 46°11' W 125°19'1110.8
2016-Apr-19 11:33N 46°11' W 125°03'1110.6
2016-Apr-19 10:33N 46°11' W 124°48'1110.7
2016-Apr-19 09:33N 46°12' W 124°33'1110.7
2016-Apr-19 08:33N 46°12' W 124°17'1010.2
2016-Apr-19 07:33N 46°16' W 124°04'10 9.5
2016-Apr-19 06:33N 46°12' W 123°51'9 9.2
2016-Apr-19 05:33N 46°16' W 123°39'10 9.8
2016-Apr-19 04:33N 46°13' W 123°25'9 9.0
2016-Apr-19 03:33N 46°10' W 123°13'1211.7
2016-Apr-19 02:33N 46°06' W 122°57'10 9.8
2016-Apr-19 01:33N 45°58' W 122°49'1212.4
2016-Apr-19 00:33N 45°46' W 122°46'7 7.1
2016-Apr-18 23:32N 45°39' W 122°46'0 0.0
2016-Apr-18 22:29N 45°39' W 122°46'0 0.0
2016-Apr-18 21:26N 45°39' W 122°46'0 0.0
2016-Apr-18 20:32N 45°39' W 122°46'0 0.0
2016-Apr-18 19:32N 45°39' W 122°46'0 0.0
2016-Apr-18 18:29N 45°39' W 122°46'0 0.0
2016-Apr-18 17:29N 45°39' W 122°46'0 0.0
2016-Apr-18 16:32N 45°39' W 122°46'0 0.0
2016-Apr-18 15:29N 45°39' W 122°46'0 0.0
2016-Apr-18 14:29N 45°39' W 122°46'0 0.0
2016-Apr-18 13:23N 45°39' W 122°46'0 0.0
2016-Apr-18 12:23N 45°39' W 122°46'0 0.0
2016-Apr-18 11:29N 45°39' W 122°46'0 0.0
2016-Apr-18 10:20N 45°39' W 122°46'0 0.0
2016-Apr-18 09:29N 45°39' W 122°46'0 0.0
2016-Apr-18 08:32N 45°39' W 122°46'0 0.0
2016-Apr-18 07:32N 45°39' W 122°46'0 0.0
2016-Apr-18 06:32N 45°39' W 122°46'0 0.0
2016-Apr-18 05:23N 45°39' W 122°46'0 0.0
2016-Apr-18 04:32N 45°39' W 122°46'0 0.0
2016-Apr-18 03:26N 45°39' W 122°46'0 0.0
2016-Apr-18 02:32N 45°39' W 122°46'0 0.0
2016-Apr-18 01:29N 45°39' W 122°46'0 0.0
2016-Apr-18 00:29N 45°39' W 122°46'0 0.0
2016-Apr-17 23:32N 45°39' W 122°46'0 0.0
2016-Apr-17 22:32N 45°39' W 122°46'0 0.0
2016-Apr-17 21:32N 45°39' W 122°46'0 0.0
2016-Apr-17 20:29N 45°39' W 122°46'0 0.0
2016-Apr-17 19:20N 45°39' W 122°46'0 0.0
2016-Apr-17 18:32N 45°39' W 122°46'0 0.0
2016-Apr-17 17:32N 45°39' W 122°46'0 0.0
2016-Apr-17 16:29N 45°39' W 122°46'0 0.0
2016-Apr-17 15:23N 45°39' W 122°46'0 0.0
2016-Apr-17 14:29N 45°39' W 122°46'0 0.0
2016-Apr-17 13:32N 45°39' W 122°46'0 0.0
2016-Apr-17 12:32N 45°39' W 122°46'0 0.0
2016-Apr-17 11:32N 45°39' W 122°46'0 0.0
2016-Apr-17 10:26N 45°39' W 122°46'0 0.0
2016-Apr-17 09:32N 45°39' W 122°46'0 0.0
2016-Apr-17 08:32N 45°39' W 122°46'0 0.0
2016-Apr-17 07:29N 45°39' W 122°46'0 0.0
2016-Apr-17 06:29N 45°39' W 122°46'0 0.0
2016-Apr-17 05:29N 45°39' W 122°46'0 0.0
2016-Apr-17 04:32N 45°39' W 122°46'0 0.0
2016-Apr-17 03:23N 45°39' W 122°46'0 0.0
2016-Apr-17 02:29N 45°39' W 122°46'0 0.0
2016-Apr-17 01:32N 45°39' W 122°46'0 0.0
2016-Apr-17 00:29N 45°39' W 122°46'0 0.0
2016-Apr-16 23:32N 45°39' W 122°46'0 0.0
2016-Apr-16 22:29N 45°39' W 122°46'0 0.0
2016-Apr-16 21:32N 45°39' W 122°46'0 0.0
2016-Apr-16 20:32N 45°39' W 122°46'0 0.0
2016-Apr-16 19:32N 45°39' W 122°46'0 0.0
2016-Apr-16 18:29N 45°39' W 122°46'0 0.0
2016-Apr-16 17:32N 45°39' W 122°46'0 0.0
2016-Apr-16 16:32N 45°39' W 122°46'0 0.0
2016-Apr-16 15:29N 45°39' W 122°46'0 0.0
2016-Apr-16 14:29N 45°39' W 122°46'0 0.0
2016-Apr-16 13:29N 45°39' W 122°46'0 0.0
2016-Apr-16 12:32N 45°39' W 122°46'0 0.0
2016-Apr-16 11:32N 45°39' W 122°46'0 0.0
2016-Apr-16 10:32N 45°39' W 122°46'0 0.0
2016-Apr-16 09:32N 45°39' W 122°46'0 0.0
2016-Apr-16 08:29N 45°39' W 122°46'0 0.0
2016-Apr-16 07:32N 45°39' W 122°46'0 0.0
2016-Apr-16 06:32N 45°39' W 122°46'0 0.0
2016-Apr-16 05:26N 45°39' W 122°46'0 0.0
2016-Apr-16 04:32N 45°39' W 122°46'0 0.0
2016-Apr-16 03:29N 45°39' W 122°46'0 0.0
2016-Apr-16 02:32N 45°39' W 122°46'0 0.0
2016-Apr-16 01:29N 45°39' W 122°46'0 0.0
2016-Apr-16 00:29N 45°39' W 122°46'0 0.0
2016-Apr-15 23:29N 45°39' W 122°46'0 0.0
2016-Apr-15 22:32N 45°39' W 122°46'0 0.0
2016-Apr-15 21:29N 45°39' W 122°46'0 0.0
2016-Apr-15 20:32N 45°39' W 122°46'0 0.0
2016-Apr-15 19:29N 45°39' W 122°46'0 0.0
2016-Apr-15 18:29N 45°39' W 122°46'0 0.0
2016-Apr-15 17:32N 45°39' W 122°46'0 0.0
2016-Apr-15 16:23N 45°39' W 122°46'0 0.0
2016-Apr-15 15:29N 45°39' W 122°46'0 0.0
2016-Apr-15 14:32N 45°39' W 122°46'2 1.9
2016-Apr-15 13:25N 45°41' W 122°46'0 0.0
2016-Apr-15 12:28N 45°41' W 122°46'0 0.0
2016-Apr-15 11:28N 45°41' W 122°46'0 0.0
2016-Apr-15 10:28N 45°41' W 122°46'0 0.0
2016-Apr-15 09:31N 45°41' W 122°46'0 0.0
2016-Apr-15 08:28N 45°41' W 122°46'0 0.0
2016-Apr-15 07:31N 45°41' W 122°46'0 0.0
2016-Apr-15 06:31N 45°41' W 122°46'0 0.0
2016-Apr-15 05:31N 45°41' W 122°46'0 0.0
2016-Apr-15 04:31N 45°41' W 122°46'0 0.0
2016-Apr-15 03:28N 45°41' W 122°46'0 0.0
2016-Apr-15 02:31N 45°41' W 122°46'0 0.0
2016-Apr-15 01:31N 45°41' W 122°46'0 0.0
2016-Apr-15 00:31N 45°41' W 122°46'0 0.0
2016-Apr-14 23:25N 45°41' W 122°46'0 0.0
2016-Apr-14 22:31N 45°41' W 122°46'0 0.0
2016-Apr-14 21:28N 45°41' W 122°46'0 0.0
2016-Apr-14 20:28N 45°41' W 122°46'0 0.0
2016-Apr-14 19:31N 45°41' W 122°46'0 0.0
2016-Apr-14 18:25N 45°41' W 122°46'0 0.0
2016-Apr-14 17:31N 45°41' W 122°46'0 0.0
2016-Apr-14 16:28N 45°41' W 122°46'0 0.0
2016-Apr-14 15:28N 45°41' W 122°46'0 0.0
2016-Apr-14 14:25N 45°41' W 122°46'0 0.0
2016-Apr-14 13:31N 45°41' W 122°46'0 0.0
2016-Apr-14 12:31N 45°41' W 122°46'0 0.0
2016-Apr-14 11:28N 45°41' W 122°46'0 0.0
2016-Apr-14 10:28N 45°41' W 122°46'0 0.0
2016-Apr-14 09:22N 45°41' W 122°46'0 0.0
2016-Apr-14 08:31N 45°41' W 122°46'0 0.0
2016-Apr-14 07:31N 45°41' W 122°46'0 0.0
2016-Apr-14 06:31N 45°41' W 122°46'0 0.0
2016-Apr-14 05:31N 45°41' W 122°46'0 0.0
2016-Apr-14 04:25N 45°41' W 122°46'0 0.0
2016-Apr-14 03:31N 45°41' W 122°46'0 0.0
2016-Apr-14 02:28N 45°41' W 122°46'0 0.0
2016-Apr-14 01:31N 45°41' W 122°46'0 0.0
2016-Apr-14 00:31N 45°41' W 122°46'0 0.0
2016-Apr-13 23:31N 45°41' W 122°46'0 0.0
2016-Apr-13 22:22N 45°41' W 122°46'0 0.0
2016-Apr-13 21:33N 45°41' W 122°46'0 0.0
2016-Apr-13 20:33N 45°41' W 122°46'0 0.0
2016-Apr-13 19:33N 45°41' W 122°46'6 6.4
2016-Apr-13 18:33N 45°47' W 122°46'1110.7
2016-Apr-13 17:33N 45°58' W 122°49'10 9.9
2016-Apr-13 16:33N 46°06' W 122°57'1111.1
2016-Apr-13 15:33N 46°11' W 123°11'1010.3
2016-Apr-13 14:33N 46°11' W 123°26'10 9.7
2016-Apr-13 13:33N 46°16' W 123°38'9 8.4
2016-Apr-13 12:32N 46°12' W 123°50'0 0.0
2016-Apr-13 11:32N 46°12' W 123°50'0 0.1
2016-Apr-13 10:32N 46°12' W 123°50'0 0.0
2016-Apr-13 09:32N 46°12' W 123°50'0 0.1
2016-Apr-13 08:32N 46°12' W 123°50'0 0.0
2016-Apr-13 07:26N 46°12' W 123°50'0 0.0
2016-Apr-13 06:32N 46°12' W 123°50'0 0.0
2016-Apr-13 05:32N 46°12' W 123°50'0 0.0
2016-Apr-13 04:32N 46°12' W 123°50'0 0.0
2016-Apr-13 03:32N 46°12' W 123°50'0 0.1
2016-Apr-13 02:32N 46°12' W 123°50'0 0.1
2016-Apr-13 01:32N 46°12' W 123°50'0 0.1
2016-Apr-13 00:32N 46°12' W 123°50'0 0.0
2016-Apr-12 23:32N 46°12' W 123°50'0 0.0
2016-Apr-12 22:32N 46°12' W 123°50'0 0.0
2016-Apr-12 21:32N 46°12' W 123°50'0 0.2
2016-Apr-12 20:32N 46°12' W 123°50'0 0.1
2016-Apr-12 19:32N 46°12' W 123°50'0 0.0
2016-Apr-12 18:32N 46°12' W 123°50'0 0.0
2016-Apr-12 17:32N 46°12' W 123°50'0 0.0
2016-Apr-12 16:32N 46°12' W 123°50'0 0.0
2016-Apr-12 15:32N 46°12' W 123°50'0 0.1
2016-Apr-12 14:32N 46°12' W 123°50'0 0.1
2016-Apr-12 13:32N 46°12' W 123°50'0 0.2
2016-Apr-12 12:32N 46°12' W 123°50'0 0.0
2016-Apr-12 11:32N 46°12' W 123°50'0 0.0
2016-Apr-12 10:32N 46°12' W 123°50'0 0.0
2016-Apr-12 09:32N 46°12' W 123°50'0 0.1
2016-Apr-12 08:32N 46°12' W 123°50'0 0.2
2016-Apr-12 07:33N 46°12' W 123°50'0 0.0
2016-Apr-12 06:33N 46°12' W 123°50'0 0.0
2016-Apr-12 05:32N 46°12' W 123°50'0 0.0
2016-Apr-12 04:32N 46°12' W 123°50'0 0.0
2016-Apr-12 03:32N 46°12' W 123°50'0 0.0
2016-Apr-12 02:32N 46°12' W 123°50'0 0.2
2016-Apr-12 01:32N 46°12' W 123°50'0 0.1
2016-Apr-12 00:32N 46°12' W 123°50'0 0.0
2016-Apr-11 23:32N 46°12' W 123°50'0 0.0
2016-Apr-11 22:29N 46°12' W 123°50'0 0.0
2016-Apr-11 21:32N 46°12' W 123°50'0 0.2
2016-Apr-11 20:32N 46°12' W 123°50'0 0.0
2016-Apr-11 19:26N 46°12' W 123°50'0 0.0
2016-Apr-11 18:32N 46°12' W 123°50'0 0.0
2016-Apr-11 17:32N 46°12' W 123°50'0 0.0
2016-Apr-11 16:32N 46°12' W 123°50'0 0.0
2016-Apr-11 15:32N 46°12' W 123°50'0 0.0
2016-Apr-11 14:32N 46°12' W 123°50'0 0.4
2016-Apr-11 13:33N 46°12' W 123°50'7 6.8
2016-Apr-11 12:33N 46°14' W 123°60'1110.7
2016-Apr-11 11:33N 46°11' W 124°14'1111.4
2016-Apr-11 10:33N 46°12' W 124°31'1212.4
2016-Apr-11 09:33N 46°12' W 124°49'1312.6
2016-Apr-11 08:33N 46°11' W 125°07'1212.3
2016-Apr-11 07:33N 46°11' W 125°25'1312.4
2016-Apr-11 06:31N 46°11' W 125°43'1312.4
2016-Apr-11 05:28N 46°11' W 126°02'1111.4
2016-Apr-11 04:32N 46°11' W 126°17'1110.8
2016-Apr-11 03:33N 46°10' W 126°33'1010.1
2016-Apr-11 02:33N 46°11' W 126°47'  

Dump ship's entire track history